Time,TemperatureF,DewpointF,PressureIn,WindDirection,WindDirectionDegrees,WindSpeedMPH,WindSpeedGustMPH,Humidity,HourlyPrecipIn,Conditions,Clouds,dailyrainin,SoftwareType,DateUTC
2013-01-30 00:02:00,51.0,50.0,-100.00,SSE,165,1.0,1.0,98,-99.99,,,-99.99,,2013-01-30 06:02:00,
2013-01-30 00:11:00,51.0,50.0,-100.00,SSE,165,1.0,2.0,97,-99.99,,,-99.99,,2013-01-30 06:11:00,
2013-01-30 00:21:00,51.0,50.0,-100.00,SSE,165,1.0,2.0,97,-99.99,,,-99.99,,2013-01-30 06:21:00,
2013-01-30 00:32:00,51.0,49.0,-100.00,SSE,150,1.0,2.0,96,-99.99,,,-99.99,,2013-01-30 06:32:00,
2013-01-30 00:42:00,51.0,50.0,-100.00,South,175,1.0,1.0,97,-99.99,,,-99.99,,2013-01-30 06:42:00,
2013-01-30 00:52:00,51.0,50.0,-100.00,South,175,1.0,1.0,97,-99.99,,,-99.99,,2013-01-30 06:52:00,
2013-01-30 01:02:00,51.0,50.0,-100.00,South,180,1.0,1.0,97,-99.99,,,-99.99,,2013-01-30 07:02:00,
2013-01-30 01:11:00,51.0,50.0,-100.00,South,170,1.0,2.0,97,-99.99,,,-99.99,,2013-01-30 07:11:00,
2013-01-30 01:21:00,51.0,50.0,-100.00,South,170,1.0,2.0,97,-99.99,,,-99.99,,2013-01-30 07:21:00,
2013-01-30 01:32:00,51.0,50.0,-100.00,SSE,155,1.0,2.0,97,-99.99,,,-99.99,,2013-01-30 07:32:00,
2013-01-30 01:42:00,51.0,50.0,-100.00,SE,130,1.0,2.0,97,-99.99,,,-99.99,,2013-01-30 07:42:00,
2013-01-30 01:52:00,51.0,50.0,-100.00,SE,130,1.0,2.0,97,-99.99,,,-99.99,,2013-01-30 07:52:00,
2013-01-30 02:01:00,51.0,50.0,-100.00,SE,130,1.0,2.0,95,-99.99,,,-99.99,,2013-01-30 08:01:00,
2013-01-30 02:11:00,51.0,49.0,-100.00,South,185,1.0,2.0,95,-99.99,,,-99.99,,2013-01-30 08:11:00,
2013-01-30 02:21:00,51.0,49.0,-100.00,South,185,1.0,2.0,95,-99.99,,,-99.99,,2013-01-30 08:21:00,
2013-01-30 02:32:00,50.0,49.0,-100.00,SSE,165,1.0,1.0,96,-99.99,,,-99.99,,2013-01-30 08:32:00,
2013-01-30 02:42:00,49.0,48.0,-100.00,SE,140,0.0,1.0,96,-99.99,,,-99.99,,2013-01-30 08:42:00,
2013-01-30 02:52:00,49.0,48.0,-100.00,SE,140,0.0,1.0,96,-99.99,,,-99.99,,2013-01-30 08:52:00,
2013-01-30 03:01:00,49.0,48.0,-100.00,South,185,1.0,1.0,97,-99.99,,,-99.99,,2013-01-30 09:01:00,
2013-01-30 03:11:00,49.0,48.0,-100.00,South,175,1.0,1.0,97,-99.99,,,-99.99,,2013-01-30 09:11:00,
2013-01-30 03:21:00,49.0,48.0,-100.00,South,175,1.0,1.0,97,-99.99,,,-99.99,,2013-01-30 09:21:00,
2013-01-30 03:30:00,47.0,45.0,-100.00,SW,215,2.0,3.0,91,-99.99,,,-99.99,,2013-01-30 09:30:00,
2013-01-30 03:32:00,49.0,48.0,-100.00,SSW,210,1.0,1.0,97,-99.99,,,-99.99,,2013-01-30 09:32:00,
2013-01-30 03:42:00,49.0,48.0,-100.00,SW,220,1.0,2.0,96,-99.99,,,-99.99,,2013-01-30 09:42:00,
2013-01-30 03:51:00,49.0,48.0,-100.00,SW,220,1.0,2.0,96,-99.99,,,-99.99,,2013-01-30 09:51:00,
2013-01-30 04:01:00,48.0,46.0,-100.00,SW,220,2.0,4.0,91,-99.99,,,-99.99,,2013-01-30 10:01:00,
2013-01-30 04:11:00,47.0,45.0,-100.00,SW,215,2.0,3.0,91,-99.99,,,-99.99,,2013-01-30 10:11:00,
2013-01-30 04:21:00,47.0,45.0,-100.00,SW,215,2.0,3.0,91,-99.99,,,-99.99,,2013-01-30 10:21:00,
2013-01-30 04:42:00,45.0,43.0,-100.00,WSW,245,2.0,4.0,92,-99.99,,,-99.99,,2013-01-30 10:42:00,
2013-01-30 04:52:00,45.0,43.0,-100.00,WSW,245,2.0,4.0,92,-99.99,,,-99.99,,2013-01-30 10:52:00,
2013-01-30 05:02:00,43.0,41.0,-100.00,SW,235,2.0,3.0,93,-99.99,,,-99.99,,2013-01-30 11:02:00,
2013-01-30 05:11:00,42.0,40.0,-100.00,SW,235,2.0,4.0,93,-99.99,,,-99.99,,2013-01-30 11:11:00,
2013-01-30 05:20:00,41.0,38.0,-100.00,WSW,245,2.0,3.0,89,-99.99,,,-99.99,,2013-01-30 11:20:00,
2013-01-30 05:22:00,42.0,40.0,-100.00,SW,235,2.0,4.0,93,-99.99,,,-99.99,,2013-01-30 11:22:00,
2013-01-30 05:33:00,42.0,39.0,-100.00,SW,230,2.0,3.0,92,-99.99,,,-99.99,,2013-01-30 11:33:00,
2013-01-30 05:42:00,41.0,39.0,-100.00,West,270,1.0,3.0,93,-99.99,,,-99.99,,2013-01-30 11:42:00,
2013-01-30 05:52:00,41.0,39.0,-100.00,West,270,1.0,3.0,93,-99.99,,,-99.99,,2013-01-30 11:52:00,
2013-01-30 06:02:00,41.0,38.0,-100.00,WSW,245,2.0,3.0,89,-99.99,,,-99.99,,2013-01-30 12:02:00,
2013-01-30 06:12:00,41.0,38.0,-100.00,WSW,245,2.0,3.0,89,-99.99,,,-99.99,,2013-01-30 12:12:00,
2013-01-30 06:33:00,40.0,38.0,-100.00,SW,235,2.0,2.0,91,-99.99,,,-99.99,,2013-01-30 12:33:00,
2013-01-30 06:42:00,40.0,38.0,-100.00,SW,235,2.0,2.0,90,-99.99,,,-99.99,,2013-01-30 12:42:00,
2013-01-30 07:03:00,40.0,37.0,-100.00,SW,225,2.0,3.0,87,-99.99,,,-99.99,,2013-01-30 13:03:00,
2013-01-30 07:12:00,40.0,37.0,-100.00,West,275,2.0,3.0,89,-99.99,,,-99.99,,2013-01-30 13:12:00,
2013-01-30 07:23:00,40.0,37.0,-100.00,West,275,2.0,3.0,89,-99.99,,,-99.99,,2013-01-30 13:23:00,
2013-01-30 07:33:00,39.0,36.0,-100.00,WSW,250,2.0,3.0,91,-99.99,,,-99.99,,2013-01-30 13:33:00,
2013-01-30 07:42:00,39.0,35.0,-100.00,WSW,240,2.0,3.0,88,-99.99,,,-99.99,,2013-01-30 13:42:00,
2013-01-30 07:52:00,39.0,35.0,-100.00,WSW,240,2.0,3.0,88,-99.99,,,-99.99,,2013-01-30 13:52:00,
2013-01-30 08:02:00,39.0,34.0,-100.00,WSW,250,1.0,3.0,83,-99.99,,,-99.99,,2013-01-30 14:02:00,
2013-01-30 08:12:00,38.0,34.0,-100.00,West,260,2.0,3.0,85,-99.99,,,-99.99,,2013-01-30 14:12:00,
2013-01-30 08:23:00,38.0,34.0,-100.00,West,260,2.0,3.0,85,-99.99,,,-99.99,,2013-01-30 14:23:00,
2013-01-30 08:33:00,38.0,33.0,-100.00,WSW,245,2.0,3.0,85,-99.99,,,-99.99,,2013-01-30 14:33:00,
2013-01-30 08:42:00,37.0,33.0,-100.00,SW,230,2.0,3.0,83,-99.99,,,-99.99,,2013-01-30 14:42:00,
2013-01-30 08:52:00,37.0,33.0,-100.00,SW,230,2.0,3.0,83,-99.99,,,-99.99,,2013-01-30 14:52:00,
2013-01-30 09:03:00,37.0,33.0,-100.00,SW,220,2.0,3.0,84,-99.99,,,-99.99,,2013-01-30 15:03:00,
2013-01-30 09:12:00,38.0,33.0,-100.00,SW,225,2.0,3.0,83,-99.99,,,-99.99,,2013-01-30 15:12:00,
2013-01-30 09:23:00,38.0,33.0,-100.00,SW,225,2.0,3.0,83,-99.99,,,-99.99,,2013-01-30 15:23:00,
2013-01-30 09:33:00,38.0,33.0,-100.00,WSW,250,2.0,3.0,85,-99.99,,,-99.99,,2013-01-30 15:33:00,
2013-01-30 09:43:00,37.0,34.0,-100.00,West,265,2.0,4.0,87,-99.99,,,-99.99,,2013-01-30 15:43:00,
2013-01-30 09:53:00,37.0,34.0,-100.00,West,265,2.0,4.0,87,-99.99,,,-99.99,,2013-01-30 15:53:00,
2013-01-30 10:03:00,35.0,33.0,-100.00,West,275,3.0,4.0,91,-99.99,,,-99.99,,2013-01-30 16:03:00,
2013-01-30 10:12:00,35.0,32.0,-100.00,West,280,3.0,5.0,89,-99.99,,,-99.99,,2013-01-30 16:12:00,
2013-01-30 10:23:00,35.0,32.0,-100.00,West,280,3.0,5.0,89,-99.99,,,-99.99,,2013-01-30 16:23:00,
2013-01-30 10:32:00,33.0,30.0,-100.00,West,265,3.0,4.0,88,-99.99,,,-99.99,,2013-01-30 16:32:00,
2013-01-30 10:42:00,34.0,29.0,-100.00,WNW,290,3.0,5.0,82,-99.99,,,-99.99,,2013-01-30 16:42:00,
2013-01-30 10:52:00,32.0,28.0,-100.00,West,280,2.0,4.0,85,-99.99,,,-99.99,,2013-01-30 16:52:00,
2013-01-30 11:02:00,32.0,28.0,-100.00,West,280,2.0,4.0,85,-99.99,,,-99.99,,2013-01-30 17:02:00,
2013-01-30 11:12:00,32.0,28.0,-100.00,WNW,290,3.0,5.0,83,-99.99,,,-99.99,,2013-01-30 17:12:00,
2013-01-30 11:22:00,32.0,28.0,-100.00,WNW,290,3.0,5.0,83,-99.99,,,-99.99,,2013-01-30 17:22:00,
2013-01-30 11:33:00,31.0,26.0,-100.00,WNW,295,3.0,5.0,82,-99.99,,,-99.99,,2013-01-30 17:33:00,
2013-01-30 11:42:00,31.0,26.0,-100.00,WNW,285,2.0,5.0,84,-99.99,,,-99.99,,2013-01-30 17:42:00,
2013-01-30 11:53:00,31.0,26.0,-100.00,WNW,285,2.0,5.0,84,-99.99,,,-99.99,,2013-01-30 17:53:00,
2013-01-30 12:02:00,30.0,24.0,-100.00,West,265,3.0,5.0,78,-99.99,,,-99.99,,2013-01-30 18:02:00,
2013-01-30 12:12:00,31.0,25.0,-100.00,West,270,2.0,4.0,80,-99.99,,,-99.99,,2013-01-30 18:12:00,
2013-01-30 12:23:00,31.0,25.0,-100.00,West,270,2.0,4.0,80,-99.99,,,-99.99,,2013-01-30 18:23:00,
2013-01-30 12:33:00,31.0,25.0,-100.00,WNW,285,2.0,4.0,78,-99.99,,,-99.99,,2013-01-30 18:33:00,
2013-01-30 12:42:00,31.0,24.0,-100.00,WNW,295,2.0,4.0,77,-99.99,,,-99.99,,2013-01-30 18:42:00,
2013-01-30 12:52:00,31.0,24.0,-100.00,WNW,295,2.0,4.0,77,-99.99,,,-99.99,,2013-01-30 18:52:00,
2013-01-30 13:03:00,30.0,23.0,-100.00,West,270,3.0,5.0,74,-99.99,,,-99.99,,2013-01-30 19:03:00,
2013-01-30 13:12:00,30.0,22.0,-100.00,WNW,290,4.0,5.0,71,-99.99,,,-99.99,,2013-01-30 19:12:00,
2013-01-30 13:22:00,30.0,22.0,-100.00,WNW,290,4.0,5.0,71,-99.99,,,-99.99,,2013-01-30 19:22:00,
2013-01-30 13:32:00,30.0,21.0,-100.00,West,280,3.0,5.0,70,-99.99,,,-99.99,,2013-01-30 19:32:00,
2013-01-30 13:43:00,30.0,22.0,-100.00,West,275,3.0,5.0,72,-99.99,,,-99.99,,2013-01-30 19:43:00,
2013-01-30 13:52:00,30.0,22.0,-100.00,West,275,3.0,5.0,72,-99.99,,,-99.99,,2013-01-30 19:52:00,
2013-01-30 14:03:00,29.0,21.0,-100.00,NW,315,3.0,5.0,71,-99.99,,,-99.99,,2013-01-30 20:03:00,
2013-01-30 14:12:00,29.0,22.0,-100.00,WNW,290,2.0,4.0,73,-99.99,,,-99.99,,2013-01-30 20:12:00,
2013-01-30 14:22:00,29.0,22.0,-100.00,WNW,290,2.0,4.0,73,-99.99,,,-99.99,,2013-01-30 20:22:00,
2013-01-30 14:33:00,29.0,22.0,-100.00,WNW,295,3.0,4.0,73,-99.99,,,-99.99,,2013-01-30 20:33:00,
2013-01-30 14:42:00,29.0,22.0,-100.00,WNW,295,3.0,4.0,73,-99.99,,,-99.99,,2013-01-30 20:42:00,
2013-01-30 14:52:00,29.0,22.0,-100.00,West,265,3.0,5.0,75,-99.99,,,-99.99,,2013-01-30 20:52:00,
2013-01-30 15:03:00,29.0,22.0,-100.00,WNW,300,3.0,4.0,74,-99.99,,,-99.99,,2013-01-30 21:03:00,
2013-01-30 15:12:00,29.0,22.0,-100.00,West,275,2.0,4.0,74,-99.99,,,-99.99,,2013-01-30 21:12:00,
2013-01-30 15:23:00,29.0,22.0,-100.00,West,275,2.0,4.0,74,-99.99,,,-99.99,,2013-01-30 21:23:00,
2013-01-30 15:32:00,29.0,23.0,-100.00,West,275,2.0,3.0,75,-99.99,,,-99.99,,2013-01-30 21:32:00,
2013-01-30 15:42:00,29.0,23.0,-100.00,West,260,2.0,4.0,76,-99.99,,,-99.99,,2013-01-30 21:42:00,
2013-01-30 15:52:00,29.0,23.0,-100.00,West,260,2.0,4.0,76,-99.99,,,-99.99,,2013-01-30 21:52:00,
2013-01-30 16:03:00,29.0,22.0,-100.00,West,280,3.0,4.0,73,-99.99,,,-99.99,,2013-01-30 22:03:00,
2013-01-30 16:12:00,29.0,22.0,-100.00,West,260,2.0,3.0,74,-99.99,,,-99.99,,2013-01-30 22:12:00,
2013-01-30 16:22:00,29.0,22.0,-100.00,West,260,2.0,3.0,74,-99.99,,,-99.99,,2013-01-30 22:22:00,
2013-01-30 16:32:00,29.0,22.0,-100.00,West,265,2.0,4.0,73,-99.99,,,-99.99,,2013-01-30 22:32:00,
2013-01-30 16:42:00,29.0,22.0,-100.00,West,280,2.0,4.0,74,-99.99,,,-99.99,,2013-01-30 22:42:00,
2013-01-30 16:52:00,29.0,22.0,-100.00,West,280,2.0,4.0,74,-99.99,,,-99.99,,2013-01-30 22:52:00,
2013-01-30 17:02:00,29.0,22.0,-100.00,West,275,3.0,4.0,75,-99.99,,,-99.99,,2013-01-30 23:02:00,
2013-01-30 17:12:00,29.0,22.0,-100.00,West,270,2.0,5.0,74,-99.99,,,-99.99,,2013-01-30 23:12:00,
2013-01-30 17:20:00,29.0,22.0,-100.00,West,265,2.0,3.0,76,-99.99,,,-99.99,,2013-01-30 23:20:00,
2013-01-30 17:22:00,29.0,22.0,-100.00,West,270,2.0,5.0,74,-99.99,,,-99.99,,2013-01-30 23:22:00,
2013-01-30 17:32:00,29.0,21.0,-100.00,WSW,250,2.0,4.0,73,-99.99,,,-99.99,,2013-01-30 23:32:00,
2013-01-30 17:42:00,29.0,22.0,-100.00,WNW,290,3.0,3.0,75,-99.99,,,-99.99,,2013-01-30 23:42:00,
2013-01-30 17:52:00,29.0,22.0,-100.00,WNW,290,3.0,3.0,75,-99.99,,,-99.99,,2013-01-30 23:52:00,
2013-01-30 18:02:00,29.0,22.0,-100.00,West,265,2.0,3.0,76,-99.99,,,-99.99,,2013-01-31 00:02:00,
2013-01-30 18:11:00,29.0,22.0,-100.00,West,265,2.0,3.0,76,-99.99,,,-99.99,,2013-01-31 00:11:00,
2013-01-30 18:32:00,28.0,20.0,-100.00,West,265,2.0,4.0,71,-99.99,,,-99.99,,2013-01-31 00:32:00,
2013-01-30 18:42:00,28.0,20.0,-100.00,West,265,2.0,4.0,70,-99.99,,,-99.99,,2013-01-31 00:42:00,
2013-01-30 18:52:00,28.0,20.0,-100.00,West,265,2.0,4.0,70,-99.99,,,-99.99,,2013-01-31 00:52:00,
2013-01-30 19:02:00,28.0,18.0,-100.00,WNW,285,2.0,3.0,67,-99.99,,,-99.99,,2013-01-31 01:02:00,
2013-01-30 19:12:00,28.0,19.0,-100.00,WNW,290,2.0,4.0,69,-99.99,,,-99.99,,2013-01-31 01:12:00,
2013-01-30 19:21:00,28.0,19.0,-100.00,WNW,290,2.0,4.0,69,-99.99,,,-99.99,,2013-01-31 01:21:00,
2013-01-30 19:32:00,28.0,19.0,-100.00,West,280,2.0,4.0,69,-99.99,,,-99.99,,2013-01-31 01:32:00,
2013-01-30 19:42:00,28.0,19.0,-100.00,West,280,2.0,4.0,68,-99.99,,,-99.99,,2013-01-31 01:42:00,
2013-01-30 19:50:00,28.0,19.0,-100.00,WSW,250,2.0,3.0,70,-99.99,,,-99.99,,2013-01-31 01:50:00,
2013-01-30 19:52:00,28.0,19.0,-100.00,West,280,2.0,4.0,68,-99.99,,,-99.99,,2013-01-31 01:52:00,
2013-01-30 20:01:00,28.0,19.0,-100.00,West,270,2.0,3.0,69,-99.99,,,-99.99,,2013-01-31 02:01:00,
2013-01-30 20:12:00,28.0,19.0,-100.00,West,280,1.0,3.0,69,-99.99,,,-99.99,,2013-01-31 02:12:00,
2013-01-30 20:21:00,28.0,19.0,-100.00,West,280,1.0,3.0,69,-99.99,,,-99.99,,2013-01-31 02:21:00,
2013-01-30 20:32:00,28.0,19.0,-100.00,WSW,250,2.0,3.0,70,-99.99,,,-99.99,,2013-01-31 02:32:00,
2013-01-30 20:42:00,28.0,19.0,-100.00,WSW,250,2.0,3.0,70,-99.99,,,-99.99,,2013-01-31 02:42:00,
2013-01-30 21:03:00,28.0,19.0,-100.00,WSW,255,3.0,4.0,68,-99.99,,,-99.99,,2013-01-31 03:03:00,
2013-01-30 21:11:00,27.0,18.0,-100.00,WSW,240,3.0,4.0,68,-99.99,,,-99.99,,2013-01-31 03:11:00,
2013-01-30 21:21:00,27.0,18.0,-100.00,WSW,240,3.0,4.0,68,-99.99,,,-99.99,,2013-01-31 03:21:00,
2013-01-30 21:32:00,27.0,18.0,-100.00,WSW,250,3.0,4.0,68,-99.99,,,-99.99,,2013-01-31 03:32:00,
2013-01-30 21:42:00,27.0,17.0,-100.00,WNW,285,3.0,4.0,66,-99.99,,,-99.99,,2013-01-31 03:42:00,
2013-01-30 21:51:00,27.0,17.0,-100.00,WNW,285,3.0,4.0,66,-99.99,,,-99.99,,2013-01-31 03:51:00,
2013-01-30 22:02:00,27.0,18.0,-100.00,WSW,245,2.0,3.0,67,-99.99,,,-99.99,,2013-01-31 04:02:00,
2013-01-30 22:11:00,27.0,18.0,-100.00,West,270,2.0,3.0,67,-99.99,,,-99.99,,2013-01-31 04:11:00,
2013-01-30 22:22:00,27.0,18.0,-100.00,West,270,2.0,3.0,67,-99.99,,,-99.99,,2013-01-31 04:22:00,
2013-01-30 22:30:00,27.0,17.0,-100.00,WNW,285,2.0,4.0,66,-99.99,,,-99.99,,2013-01-31 04:30:00,
2013-01-30 22:32:00,27.0,17.0,-100.00,West,260,3.0,4.0,65,-99.99,,,-99.99,,2013-01-31 04:32:00,
2013-01-30 22:41:00,27.0,16.0,-100.00,West,270,3.0,4.0,64,-99.99,,,-99.99,,2013-01-31 04:41:00,
2013-01-30 22:51:00,27.0,16.0,-100.00,West,270,3.0,4.0,64,-99.99,,,-99.99,,2013-01-31 04:51:00,
2013-01-30 23:00:00,27.0,17.0,-100.00,West,270,2.0,3.0,67,-99.99,,,-99.99,,2013-01-31 05:00:00,
2013-01-30 23:03:00,27.0,17.0,-100.00,West,280,2.0,4.0,65,-99.99,,,-99.99,,2013-01-31 05:03:00,
2013-01-30 23:11:00,27.0,17.0,-100.00,WNW,285,2.0,4.0,66,-99.99,,,-99.99,,2013-01-31 05:11:00,
2013-01-30 23:22:00,27.0,17.0,-100.00,WNW,285,2.0,4.0,66,-99.99,,,-99.99,,2013-01-31 05:22:00,
2013-01-30 23:42:00,27.0,17.0,-100.00,West,270,2.0,3.0,67,-99.99,,,-99.99,,2013-01-31 05:42:00,
2013-01-30 23:52:00,27.0,17.0,-100.00,West,270,2.0,3.0,67,-99.99,,,-99.99,,2013-01-31 05:52:00,